x

Frying Pan Shoals, Nc Buoy (41013) Wave Buoy

3:50 - Mon 31st Aug 2015 All times are EDT. -4 hours from GMT.

  • Sig Wave height 4.3ft
  • Swell Direction
  • Peak Period 8s
  • Average Period 5s
  • Wind
    18mph, 22mph gusts
  • Sea Temp 81°f
  • Aire Temp 81°f
  • Sea Pressure 1016.9mb
  • Frying Pan Shoals, Nc Buoy
  • Frying Pan Shoals, Nc Buoy

More Historic Weather Station data

Upgrade to MSW Pro to gain access to the past 30 days of data for over 8000 Wavebouys and Weather Stations around the globe.

Join Pro

Comparision Forecast

View Surf forecast
   
lun 08/31 3:50 4.5ft 8s 5s 18 22 mph 1016.9mb 81f 81f
2:50 4ft 8s 6s 18 22 mph 1017.4mb 81f 82f
1:50 3.5ft 9s 6s 11 13 mph 1018.2mb 81f 83f
12:50 3.5ft 9s 6s 7
mph
1019.1mb 82f 83f
11:50 3.5ft 9s 6s 9 11 mph 1019mb 82f 83f
10:50 3.5ft 9s 6s 7 9 mph 1019.2mb 82f 83f
9:50 3.5ft 9s 5s 9 11 mph 1018.8mb 82f 82f
8:50 3.5ft 9s 5s 9 11 mph 1018.8mb 82f 83f
7:50 3.5ft 10s 5s 9 13 mph 1017.9mb 82f 83f
6:50 3.5ft 10s 6s 18 20 mph 1017.7mb 82f 83f
5:50 3.5ft 9s 6s 11 13 mph 1018.2mb 82f 83f
4:50 3.5ft 10s 6s 11 13 mph 1018.5mb 82f 82f
3:50 3.5ft 9s 6s 9 11 mph 1018.9mb 82f 81f
2:50 4ft 9s 6s 11 13 mph 1019.3mb 82f 81f
1:50 3.5ft 10s 6s 13 18 mph 1019.8mb 82f 81f
12:50 4ft 10s 7s 18 22 mph 1019.6mb 82f 80f
dom 08/30 11:50 3.5ft 10s 7s 16 18 mph 1019.8mb 82f 79f
10:50 3.5ft 10s 8s 9 13 mph 1020.3mb 82f 79f
9:50 3.5ft 11s 8s 9 11 mph 1020.9mb 82f 79f
8:50 3ft 10s 7s 4 7 mph 1020.9mb 82f 79f
7:50 3.5ft 11s 7s 2 4 mph 1020.3mb 82f 81f
6:50 3.5ft 10s 7s 2 4 mph 1020.7mb 82f 81f
5:50 4ft 11s 7s 7 9 mph 1020.6mb 82f 81f
4:50 4ft 11s 7s 9 11 mph 1020.4mb 82f 81f
3:50 4.5ft 11s 7s 9 11 mph 1020.2mb 82f 81f
2:50 4.5ft 10s 7s 11 13 mph 1020.7mb 82f 81f
1:50 4ft 10s 6s 11 13 mph 1021.1mb 82f 81f
12:50 3.5ft 10s 6s 11 13 mph 1021.1mb 82f 81f
11:50 3.5ft 10s 7s 13 16 mph 1021.3mb 82f 80f
10:50 4ft 10s 7s 11 13 mph 1021.5mb 82f 80f
9:50 4.5ft 10s 7s 11 13 mph 1021.5mb 82f 80f
8:50 3.5ft 10s 7s 7 9 mph 1020.9mb 82f 80f
7:50 4.5ft 11s 7s 7 9 mph 1020.4mb 82f 81f
6:50 4ft 11s 6s 7 9 mph 1020mb 82f 81f
5:50 4ft 11s 6s 9 11 mph 1019.2mb 82f 80f
4:50 4.5ft 10s 6s 7 9 mph 1019.2mb 82f 80f
3:50 4.5ft 10s 6s 7 9 mph 1019.5mb 81f 80f
2:50 4.5ft 11s 6s 9 11 mph 1019.6mb 81f 80f
1:50 4.5ft 11s 6s 11
mph
1020mb 81f 81f
12:50 4.5ft 11s 6s 11 13 mph 1020.6mb 81f 81f
sáb 08/29 11:50 4.5ft 11s 5s 13 16 mph 1020.5mb 81f 81f
10:50 4.5ft 11s 5s 13
mph
1020.1mb 82f 81f
9:50 4.5ft 11s 5s 13 16 mph 1020mb 82f 81f
8:50 4.5ft 6s 5s 13 18 mph 1019.5mb 82f 81f
7:50 4.5ft 6s 5s 13 18 mph 1019.4mb 81f 81f
6:50 4.5ft 11s 5s 18 20 mph 1019.2mb 81f 81f
5:50 4.5ft 5s 5s 18 20 mph 1019.2mb 81f 81f
4:50 4.5ft 10s 5s 16 18 mph 1019.6mb 81f 81f
3:50 4.5ft 11s 5s 16 18 mph 1020.2mb 81f 81f
2:50 4.5ft 6s 5s 18 20 mph 1020.8mb 81f 80f
1:50 4.5ft 11s 5s 18 22 mph 1021.1mb 81f 80f
12:50 4.5ft 6s 5s 18 22 mph 1021.3mb 81f 80f
11:50 4.5ft 6s 5s 18 20 mph 1021.5mb 81f 80f
10:50 4.5ft 5s 5s 16 18 mph 1021.4mb 81f 81f
9:50 4.5ft 6s 5s 18 20 mph 1020.9mb 81f 81f
8:50 4.5ft 6s 5s 18 22 mph 1020.5mb 81f 81f
7:50 4.5ft 6s 5s 18 20 mph 1020.4mb 81f 80f
6:50 4.5ft 5s 5s 18 20 mph 1020mb 81f 80f
5:50 5ft 6s 5s 18 22 mph 1019.3mb 81f 80f
4:50 5ft 6s 5s 20 25 mph 1019.1mb 81f 80f
3:50 5ft 6s 5s 20 25 mph 1019.2mb 81f 80f
2:50 5ft 6s 5s 20 25 mph 1019.6mb 81f 80f
1:50 5.5ft 6s 5s 20 22 mph 1020.2mb 81f 80f
12:50 6ft 6s 5s 20 25 mph 1020.6mb 81f 80f
vie 08/28 11:50 6ft 6s 5s 22 25 mph 1020.5mb 81f 80f
10:50 6ft 7s 5s 22 27 mph 1020.1mb 81f 80f
9:50 6ft 6s 5s 20 25 mph 1019.9mb 81f 80f
8:50 5ft 6s 5s 20 25 mph 1019.6mb 81f 80f
7:50 5.5ft 6s 5s 20 25 mph 1019.1mb 81f 80f
6:50 5.5ft 6s 5s 20 25 mph 1019mb 81f 81f
5:50 5ft 6s 5s 22 27 mph 1018.9mb 81f 81f
4:50 5.5ft 6s 5s 22 27 mph 1019.1mb 81f 81f
3:50 5ft 6s 5s 22 27 mph 1019.3mb 81f 81f
2:50 5ft 5s 5s 22 27 mph 1019.6mb 81f 81f
1:50 4.5ft 5s 5s 22 27 mph 1019.9mb 81f 81f
12:50 4ft 5s 4s 20 25 mph 1019.9mb 81f 80f
11:50 4ft 5s 5s 18 20 mph 1020.1mb 81f 81f
10:50 4ft 5s 5s 16 20 mph 1019.8mb 81f 81f
9:50 3.5ft 6s 5s 16 18 mph 1019.1mb 81f 81f
8:50 3.5ft 9s 5s 16 18 mph 1018.7mb 81f 81f
7:50  -   -   -  13 18 mph 1018.2mb 81f 80f
6:50  -   -   -  11 13 mph 1017.7mb 81f 80f
5:50  -   -   -  11 13 mph 1017mb 81f 80f
4:50  -   -   -  11 13 mph 1016.7mb 81f 80f
3:50  -   -   -  11 13 mph 1016.8mb 81f 80f
2:50  -   -   -  9 11 mph 1017.1mb 81f 79f
1:50  -   -   -  7
mph
1017.4mb 81f 79f
12:50  -   -   -  9 13 mph 1017.8mb 81f 78f
jue 08/27 11:50  -   -   -  9 11 mph 1017.9mb 81f 79f
10:50  -   -   -  20 25 mph 1017.1mb 82f 80f
9:50  -   -   -  11 13 mph 1017mb 82f 81f
8:50  -   -   -  18 20 mph 1016.3mb 82f 80f